DLH010 VAPO-VABB
Flight info
| Callsign | DLH010 |
|---|---|
| Flight time | 0h 18m |
| Altitude | 10000 |
| Route | PPN W28 BBB |
| Aircraft | A20N/M-SDE2E3FGHIRWXY/LB1 |
Departure
| Time | 2026-04-25 09:55 |
|---|---|
| Airport | Pune International Airport (VAPO) |
Arrival
| Time | 2026-04-25 10:13 |
|---|---|
| Airport | Chhatrapati Shivaji Maharaj International Airport (VABB) |
| Time | Latitude | Longitude | Altitude | Speed | Heading |
|---|---|---|---|---|---|
| 2026-04-25 09:45 | 18.58006 | 73.90801 | 1943 ft | 0 kts | 187° |
| 2026-04-25 09:50 | 18.58018 | 73.90803 | 1943 ft | 2 kts | 189° |
| 2026-04-25 09:50 | 18.58034 | 73.90806 | 1943 ft | 2 kts | 193° |
| 2026-04-25 09:50 | 18.58050 | 73.90811 | 1943 ft | 2 kts | 202° |
| 2026-04-25 09:50 | 18.58064 | 73.90819 | 1943 ft | 2 kts | 238° |
| 2026-04-25 09:51 | 18.58068 | 73.90834 | 1943 ft | 1 kts | 275° |
| 2026-04-25 09:51 | 18.58068 | 73.90838 | 1943 ft | 0 kts | 277° |
| 2026-04-25 09:52 | 18.58068 | 73.90837 | 1943 ft | 1 kts | 277° |
| 2026-04-25 09:52 | 18.58071 | 73.90814 | 1943 ft | 5 kts | 277° |
| 2026-04-25 09:52 | 18.58095 | 73.90775 | 1943 ft | 8 kts | 334° |
| 2026-04-25 09:52 | 18.58152 | 73.90746 | 1942 ft | 11 kts | 334° |
| 2026-04-25 09:53 | 18.58213 | 73.90694 | 1942 ft | 11 kts | 285° |
| 2026-04-25 09:53 | 18.58271 | 73.90654 | 1942 ft | 11 kts | 327° |
| 2026-04-25 09:53 | 18.58313 | 73.90664 | 1942 ft | 1 kts | 89° |
| 2026-04-25 09:53 | 18.58310 | 73.90688 | 1942 ft | 5 kts | 95° |
| 2026-04-25 09:54 | 18.58304 | 73.90731 | 1942 ft | 0 kts | 94° |
| 2026-04-25 09:55 | 18.58295 | 73.90879 | 1944 ft | 62 kts | 93° |
| 2026-04-25 09:55 | 18.58246 | 73.91659 | 1947 ft | 146 kts | 94° |
| 2026-04-25 09:55 | 18.58164 | 73.92951 | 2064 ft | 196 kts | 94° |
| 2026-04-25 09:55 | 18.58068 | 73.94377 | 3065 ft | 197 kts | 94° |
| 2026-04-25 09:56 | 18.57968 | 73.95831 | 4109 ft | 201 kts | 94° |
| 2026-04-25 09:56 | 18.57962 | 73.97312 | 4820 ft | 208 kts | 77° |
| 2026-04-25 09:56 | 18.58633 | 73.98655 | 5122 ft | 211 kts | 43° |
| 2026-04-25 09:56 | 18.59910 | 73.99369 | 5219 ft | 211 kts | 7° |
| 2026-04-25 09:57 | 18.61495 | 73.99172 | 5239 ft | 257 kts | 336° |
| 2026-04-25 09:57 | 18.63060 | 73.97970 | 5233 ft | 304 kts | 310° |
| 2026-04-25 09:57 | 18.64134 | 73.95897 | 5232 ft | 344 kts | 286° |
| 2026-04-25 09:57 | 18.64579 | 73.93302 | 5228 ft | 370 kts | 277° |
| 2026-04-25 09:58 | 18.64947 | 73.90584 | 5228 ft | 376 kts | 279° |
| 2026-04-25 09:58 | 18.65486 | 73.87925 | 5230 ft | 376 kts | 284° |
| 2026-04-25 09:58 | 18.66205 | 73.85269 | 5229 ft | 377 kts | 287° |
| 2026-04-25 09:58 | 18.67030 | 73.82650 | 5230 ft | 376 kts | 289° |
| 2026-04-25 09:59 | 18.67909 | 73.80030 | 5225 ft | 376 kts | 289° |
| 2026-04-25 09:59 | 18.68800 | 73.77425 | 5228 ft | 376 kts | 289° |
| 2026-04-25 09:59 | 18.69692 | 73.74822 | 5230 ft | 377 kts | 289° |
| 2026-04-25 09:59 | 18.70568 | 73.72258 | 5229 ft | 377 kts | 289° |
| 2026-04-25 10:00 | 18.71456 | 73.69654 | 5226 ft | 377 kts | 290° |
| 2026-04-25 10:00 | 18.72704 | 73.67233 | 5262 ft | 379 kts | 308° |
| 2026-04-25 10:00 | 18.74685 | 73.65399 | 5922 ft | 381 kts | 328° |
| 2026-04-25 10:00 | 18.76919 | 73.64039 | 6985 ft | 352 kts | 330° |
| 2026-04-25 10:01 | 18.78832 | 73.62699 | 7576 ft | 313 kts | 316° |
| 2026-04-25 10:01 | 18.80062 | 73.60961 | 7916 ft | 282 kts | 300° |
| 2026-04-25 10:01 | 18.81025 | 73.59218 | 8105 ft | 274 kts | 300° |
| 2026-04-25 10:01 | 18.81987 | 73.57470 | 8219 ft | 275 kts | 300° |
| 2026-04-25 10:02 | 18.82936 | 73.55746 | 8229 ft | 275 kts | 300° |
| 2026-04-25 10:02 | 18.83898 | 73.53998 | 8230 ft | 276 kts | 300° |
| 2026-04-25 10:02 | 18.84850 | 73.52248 | 8229 ft | 275 kts | 299° |
| 2026-04-25 10:02 | 18.85791 | 73.50483 | 8227 ft | 274 kts | 299° |
| 2026-04-25 10:03 | 18.86726 | 73.48722 | 8226 ft | 275 kts | 299° |
| 2026-04-25 10:03 | 18.87656 | 73.46974 | 8170 ft | 269 kts | 299° |
| 2026-04-25 10:03 | 18.88574 | 73.45253 | 7831 ft | 270 kts | 299° |
| 2026-04-25 10:03 | 18.89496 | 73.43527 | 7312 ft | 276 kts | 299° |
| 2026-04-25 10:04 | 18.90447 | 73.41747 | 6679 ft | 283 kts | 299° |
| 2026-04-25 10:04 | 18.91435 | 73.39898 | 5936 ft | 294 kts | 299° |
| 2026-04-25 10:04 | 18.92454 | 73.37988 | 5269 ft | 301 kts | 299° |
| 2026-04-25 10:04 | 18.93495 | 73.36038 | 4550 ft | 308 kts | 299° |
| 2026-04-25 10:05 | 18.94535 | 73.34089 | 4203 ft | 300 kts | 299° |
| 2026-04-25 10:05 | 18.95539 | 73.32208 | 4064 ft | 286 kts | 299° |
| 2026-04-25 10:05 | 18.96488 | 73.30427 | 4028 ft | 270 kts | 299° |
| 2026-04-25 10:05 | 18.97381 | 73.28754 | 4028 ft | 253 kts | 299° |
| 2026-04-25 10:06 | 18.98219 | 73.27182 | 4027 ft | 238 kts | 299° |
| 2026-04-25 10:06 | 18.99003 | 73.25710 | 4028 ft | 222 kts | 299° |
| 2026-04-25 10:06 | 18.99765 | 73.24280 | 4021 ft | 224 kts | 299° |
| 2026-04-25 10:06 | 19.00524 | 73.22854 | 4029 ft | 222 kts | 299° |
| 2026-04-25 10:07 | 19.01280 | 73.21436 | 4028 ft | 221 kts | 299° |
| 2026-04-25 10:07 | 19.02036 | 73.20017 | 4028 ft | 221 kts | 299° |
| 2026-04-25 10:07 | 19.02783 | 73.18611 | 4028 ft | 222 kts | 299° |
| 2026-04-25 10:07 | 19.03539 | 73.17188 | 4025 ft | 221 kts | 299° |
| 2026-04-25 10:08 | 19.04289 | 73.15778 | 3975 ft | 217 kts | 299° |
| 2026-04-25 10:08 | 19.05012 | 73.14417 | 3906 ft | 208 kts | 299° |
| 2026-04-25 10:08 | 19.05707 | 73.13108 | 3784 ft | 200 kts | 299° |
| 2026-04-25 10:08 | 19.06382 | 73.11841 | 3583 ft | 193 kts | 299° |
| 2026-04-25 10:09 | 19.07038 | 73.10608 | 3250 ft | 192 kts | 299° |
| 2026-04-25 10:09 | 19.07707 | 73.09348 | 3139 ft | 197 kts | 299° |
| 2026-04-25 10:09 | 19.08368 | 73.08103 | 3127 ft | 197 kts | 299° |
| 2026-04-25 10:09 | 19.08965 | 73.06858 | 3123 ft | 180 kts | 288° |
| 2026-04-25 10:10 | 19.09143 | 73.05585 | 3133 ft | 178 kts | 269° |
| 2026-04-25 10:10 | 19.09118 | 73.04280 | 3130 ft | 177 kts | 269° |
| 2026-04-25 10:10 | 19.09110 | 73.02979 | 3127 ft | 177 kts | 270° |
| 2026-04-25 10:10 | 19.09094 | 73.01684 | 3127 ft | 176 kts | 269° |
| 2026-04-25 10:11 | 19.09076 | 73.00388 | 3129 ft | 177 kts | 269° |
| 2026-04-25 10:11 | 19.09056 | 72.99094 | 3127 ft | 176 kts | 269° |
| 2026-04-25 10:11 | 19.09037 | 72.97797 | 3128 ft | 176 kts | 269° |
| 2026-04-25 10:11 | 19.09017 | 72.96501 | 3128 ft | 176 kts | 269° |
| 2026-04-25 10:12 | 19.08999 | 72.95202 | 3124 ft | 176 kts | 269° |
| 2026-04-25 10:12 | 19.08979 | 72.93923 | 2943 ft | 174 kts | 269° |
| 2026-04-25 10:12 | 19.08944 | 72.90947 | 840 ft | 214 kts | 269° |
| 2026-04-25 10:13 | 19.08929 | 72.89439 | 418 ft | 194 kts | 269° |
| 2026-04-25 10:13 | 19.08900 | 72.88074 | 120 ft | 177 kts | 268° |
| 2026-04-25 10:13 | 19.08876 | 72.86911 | 35 ft | 115 kts | 270° |
| 2026-04-25 10:13 | 19.08874 | 72.86536 | 30 ft | 0 kts | 272° |
| 2026-04-25 10:14 | 19.08883 | 72.86521 | 30 ft | 3 kts | 326° |
| 2026-04-25 10:14 | 19.08906 | 72.86498 | 30 ft | 6 kts | 312° |
| 2026-04-25 10:14 | 19.08941 | 72.86451 | 30 ft | 10 kts | 306° |
| 2026-04-25 10:14 | 19.08966 | 72.86423 | 31 ft | 0 kts | 319° |
| 2026-04-25 10:15 | 19.08966 | 72.86422 | 31 ft | 1 kts | 319° |
| 2026-04-25 10:15 | 19.08980 | 72.86409 | 31 ft | 5 kts | 319° |
| 2026-04-25 10:15 | 19.08995 | 72.86396 | 31 ft | 0 kts | 318° |
| 2026-04-25 10:16 | 19.08995 | 72.86395 | 31 ft | 1 kts | 317° |
| 2026-04-25 10:16 | 19.09008 | 72.86378 | 31 ft | 5 kts | 307° |
| 2026-04-25 10:16 | 19.09022 | 72.86361 | 31 ft | 0 kts | 313° |
| 2026-04-25 10:16 | 19.09033 | 72.86355 | 31 ft | 3 kts | 336° |
| 2026-04-25 10:17 | 19.09065 | 72.86353 | 32 ft | 6 kts | 11° |
| 2026-04-25 10:17 | 19.09104 | 72.86387 | 30 ft | 9 kts | 44° |
| 2026-04-25 10:17 | 19.09154 | 72.86449 | 32 ft | 13 kts | 50° |
| 2026-04-25 10:17 | 19.09219 | 72.86525 | 33 ft | 15 kts | 47° |
| 2026-04-25 10:18 | 19.09292 | 72.86615 | 32 ft | 18 kts | 49° |
| 2026-04-25 10:18 | 19.09380 | 72.86719 | 33 ft | 20 kts | 49° |
| 2026-04-25 10:18 | 19.09420 | 72.86834 | 33 ft | 13 kts | 120° |
| 2026-04-25 10:18 | 19.09396 | 72.86867 | 33 ft | 0 kts | 141° |
| 2026-04-25 10:19 | 19.09395 | 72.86867 | 33 ft | 1 kts | 141° |
| 2026-04-25 10:19 | 19.09380 | 72.86873 | 33 ft | 5 kts | 158° |
| 2026-04-25 10:19 | 19.09343 | 72.86901 | 33 ft | 9 kts | 138° |
| 2026-04-25 10:19 | 19.09291 | 72.86956 | 31 ft | 12 kts | 135° |
| 2026-04-25 10:20 | 19.09247 | 72.87002 | 33 ft | 14 kts | 134° |
| 2026-04-25 10:20 | 19.09249 | 72.87048 | 33 ft | 3 kts | 22° |
| 2026-04-25 10:20 | 19.09277 | 72.87061 | 33 ft | 6 kts | 30° |
| 2026-04-25 10:20 | 19.09321 | 72.87091 | 31 ft | 0 kts | 33° |